»·PEaware :: BOE561 KSFO-KONT

BOE561 :: KSFO-KONT

FLIGHT INFORMATION

Flight Status: Arrived
Operator:
Boeing Commercial Airplane Group
More flights by this operator :: More flights under this callsign
Pilot: Ben F. (2808)
Aircraft: BOEING 737-200
(B732)
More flights by this aircraft type
Origin: KSFO San Francisco Intl
United States
Destination: KONT Ontario Intl
United States
More flights between these airports :: More routes between these airports
Route: +GAPP7 OAK J1 AVE EHF ZIGGY7
File this flight plan on PilotEdge
Remarks:
Altitude:
(Current/Filed)
31,000ft
Speed:
(Current/Filed)
441kts
Departed: 24-Sep-18 08:07 AM
Arrived: 24-Sep-18 09:12 AM
Distance/Time
Traveled:
315nm/1:04
Distance/Time
To Go:
Arrived

Flight Plot

Page will automatically refresh every two minutes.

Flight plan parsing failed; only flown route is shown


Map Options




Map Legend


Flown Route
Filed Route
Departure Airport
Arrival Airport
Navaid (VOR, NDB)
Fix

Horizontal Profiles

Position Reports

Time Latitude Longitude Heading Altitude Ground
Speed
24-Sep-18 07:56 37.627658 -122.384174 294 22ft 0kts
24-Sep-18 07:57 37.627658 -122.384174 294 22ft 0kts
24-Sep-18 07:58 37.627658 -122.384174 294 22ft 0kts
24-Sep-18 07:59 37.627658 -122.384174 294 22ft 0kts
24-Sep-18 08:00 37.627658 -122.384174 294 22ft 0kts
24-Sep-18 08:01 37.627658 -122.384174 294 22ft 0kts
24-Sep-18 08:02 37.627709 -122.384346 281 22ft 4kts
24-Sep-18 08:03 37.627046 -122.385003 177 22ft 10kts
24-Sep-18 08:04 37.623822 -122.377964 117 22ft 25kts
24-Sep-18 08:05 37.620520 -122.370118 117 22ft 24kts
24-Sep-18 08:06 37.617379 -122.362585 119 22ft 23kts
24-Sep-18 08:07 37.614597 -122.356741 179 22ft 5kts
24-Sep-18 08:08 37.614021 -122.358302 297 22ft 16kts
24-Sep-18 08:09 37.630829 -122.398923 294 1331ft 184kts
24-Sep-18 08:10 37.656818 -122.464256 299 3386ft 262kts
24-Sep-18 08:11 37.636069 -122.540213 204 6984ft 276kts
24-Sep-18 08:12 37.564463 -122.577087 202 10374ft 283kts
24-Sep-18 08:13 37.492838 -122.540107 133 12330ft 330kts
24-Sep-18 08:14 37.428650 -122.453568 133 14707ft 346kts
24-Sep-18 08:15 37.362208 -122.364245 134 16813ft 358kts
24-Sep-18 08:16 37.289286 -122.276771 141 18636ft 369kts
24-Sep-18 08:17 37.218131 -122.181852 130 20236ft 380kts
24-Sep-18 08:18 37.148526 -122.080517 131 21609ft 390kts
24-Sep-18 08:19 37.077065 -121.977383 131 22770ft 399kts
24-Sep-18 08:20 37.004058 -121.872410 131 23901ft 404kts
24-Sep-18 08:21 36.930007 -121.766288 131 24919ft 409kts
24-Sep-18 08:22 36.855414 -121.659743 131 25766ft 415kts
24-Sep-18 08:23 36.779137 -121.551136 131 26528ft 420kts
24-Sep-18 08:24 36.701767 -121.441340 131 27186ft 425kts
24-Sep-18 08:25 36.623695 -121.330908 132 27779ft 429kts
24-Sep-18 08:26 36.544888 -121.219812 132 28291ft 433kts
24-Sep-18 08:27 36.465290 -121.107957 132 28747ft 437kts
24-Sep-18 08:28 36.384850 -120.995317 132 29337ft 437kts
24-Sep-18 08:29 36.304048 -120.882571 133 29714ft 441kts
24-Sep-18 08:30 36.222807 -120.769579 133 30245ft 440kts
24-Sep-18 08:31 36.141562 -120.656963 133 30789ft 438kts
24-Sep-18 08:32 36.059999 -120.544300 133 30965ft 445kts
24-Sep-18 08:33 35.976699 -120.429613 133 30966ft 454kts
24-Sep-18 08:34 35.892085 -120.313519 133 30959ft 461kts
24-Sep-18 08:35 35.809735 -120.200919 133 30963ft 463kts
24-Sep-18 08:36 35.724457 -120.084711 133 30949ft 461kts
24-Sep-18 08:37 35.647535 -119.960505 109 30956ft 464kts
24-Sep-18 08:38 35.615502 -119.807078 103 30942ft 467kts
24-Sep-18 08:39 35.587028 -119.651339 103 30940ft 468kts
24-Sep-18 08:40 35.558599 -119.495734 103 30941ft 469kts
24-Sep-18 08:41 35.530275 -119.342004 103 30940ft 470kts
24-Sep-18 08:42 35.501742 -119.188327 103 30938ft 470kts
24-Sep-18 08:43 35.436859 -119.056035 139 30942ft 463kts
24-Sep-18 08:44 35.337747 -118.956888 144 30938ft 464kts
24-Sep-18 08:45 35.236389 -118.860580 144 30939ft 466kts
24-Sep-18 08:46 35.135155 -118.764955 145 30071ft 456kts
24-Sep-18 08:47 35.044156 -118.662303 134 28160ft 445kts
24-Sep-18 08:48 34.966426 -118.550433 132 26082ft 427kts
24-Sep-18 08:49 34.894895 -118.445902 133 23950ft 412kts
24-Sep-18 08:50 34.826888 -118.346783 133 21999ft 398kts
24-Sep-18 08:51 34.758274 -118.247023 132 20024ft 384kts
24-Sep-18 08:52 34.691499 -118.150202 132 18096ft 371kts
24-Sep-18 08:53 34.628662 -118.054679 122 16220ft 362kts
24-Sep-18 08:54 34.580385 -117.951291 120 14988ft 342kts
24-Sep-18 08:55 34.534572 -117.851486 120 15000ft 337kts
24-Sep-18 08:56 34.489188 -117.752661 120 15002ft 338kts
24-Sep-18 08:57 34.444659 -117.655929 120 14023ft 332kts
24-Sep-18 08:58 34.401046 -117.561475 120 14004ft 321kts
24-Sep-18 08:59 34.336427 -117.491886 149 13024ft 312kts
24-Sep-18 09:00 34.265280 -117.441407 149 11340ft 280kts
24-Sep-18 09:01 34.199085 -117.395884 149 9101ft 272kts
24-Sep-18 09:02 34.134459 -117.352559 149 7973ft 260kts
24-Sep-18 09:03 34.072894 -117.311443 149 6038ft 260kts
24-Sep-18 09:04 34.010941 -117.270716 150 4976ft 249kts
24-Sep-18 09:05 33.968713 -117.217898 79 4984ft 223kts
24-Sep-18 09:06 34.017079 -117.202157 308 4991ft 228kts
24-Sep-18 09:07 34.041859 -117.271744 292 4839ft 232kts
24-Sep-18 09:08 34.054618 -117.344837 272 4051ft 221kts
24-Sep-18 09:09 34.054926 -117.410781 271 3754ft 180kts
24-Sep-18 09:10 34.054986 -117.462591 271 2916ft 134kts
24-Sep-18 09:11 34.055063 -117.507711 271 2198ft 134kts
24-Sep-18 09:12 34.055146 -117.552378 271 1469ft 133kts
24-Sep-18 09:13 34.054971 -117.593143 269 952ft 81kts
24-Sep-18 09:14 34.055670 -117.599698 322 952ft 3kts
24-Sep-18 09:15 34.059328 -117.600208 350 952ft 6kts

Navigation Log

Ident Type
Flight plan parsing failed, navigation log unavailable